Weather at El Loa Airport

Public forecast

Using degrees Celsius for public forecast. Weather courtesy of forecast.io.

Current aviation weather report (METAR) for El Loa Airport

Retrieved 2021/04/11 06:00 UTC (8 minutes ago):

SCCF 110600Z AUTO 12014KT CAVOK 08/M04 Q1025

Aviation forecast (TAF) for El Loa Airport

Retrieved 2021/04/11 06:00 UTC (8 minutes ago):

TAF COR SCCF 110505Z 1106/1206 11017KT CAVOK TN05/1110Z TX25/1118Z BECMG 1115/1116 27008KT BECMG 1117/1119 27020KT BECMG 1123/1201 27010KT BECMG 1203/1205 11015KT